createdAt,value
2023-05-06T00:02:25.817Z,100868.00
2023-05-06T00:04:53.905Z,100868.13
2023-05-06T00:07:22.451Z,100860.53
2023-05-06T00:09:51.628Z,100859.75
2023-05-06T00:12:19.206Z,100854.75
2023-05-06T00:14:46.973Z,100850.84
2023-05-06T00:17:14.939Z,100849.03
2023-05-06T00:19:44.469Z,100848.91
2023-05-06T00:22:12.370Z,100843.44
2023-05-06T00:24:40.155Z,100841.34
2023-05-06T00:27:09.275Z,100844.44
2023-05-06T00:29:39.430Z,100843.97
2023-05-06T00:32:07.281Z,100837.34
2023-05-06T00:34:35.179Z,100843.88
2023-05-06T00:37:03.184Z,100837.56
2023-05-06T00:39:31.167Z,100839.91
2023-05-06T00:42:02.273Z,100835.31
2023-05-06T00:44:31.813Z,100843.66
2023-05-06T00:47:00.772Z,100841.66
2023-05-06T00:49:29.159Z,100837.81
2023-05-06T00:51:57.364Z,100837.59
2023-05-06T00:54:26.514Z,100839.06
2023-05-06T00:56:54.115Z,100841.13
2023-05-06T00:59:21.905Z,100842.44
2023-05-06T01:01:52.186Z,100834.47
2023-05-06T01:04:19.975Z,100832.63
2023-05-06T01:06:52.705Z,100829.00
2023-05-06T01:09:22.549Z,100830.56
2023-05-06T01:11:53.392Z,100825.28
2023-05-06T01:14:27.568Z,100818.44
2023-05-06T01:17:00.191Z,100817.91
2023-05-06T01:19:38.893Z,100821.91
2023-05-06T01:22:10.633Z,100816.25
2023-05-06T01:24:41.505Z,100816.53
2023-05-06T01:27:10.398Z,100821.75
2023-05-06T01:29:41.760Z,100826.03
2023-05-06T01:32:27.422Z,100817.31
2023-05-06T01:35:01.175Z,100817.31
2023-05-06T01:37:33.393Z,100818.28
2023-05-06T01:40:03.813Z,100819.44
2023-05-06T01:42:32.474Z,100814.50
2023-05-06T01:45:04.076Z,100813.88
2023-05-06T01:47:32.071Z,100813.16
2023-05-06T01:49:59.810Z,100813.38
2023-05-06T01:52:27.847Z,100816.22
2023-05-06T01:54:55.621Z,100817.31
2023-05-06T01:57:24.738Z,100816.69
2023-05-06T01:59:52.650Z,100812.53
2023-05-06T02:02:20.504Z,100817.97
2023-05-06T02:04:48.239Z,100817.31
2023-05-06T02:07:16.028Z,100820.97
2023-05-06T02:09:43.821Z,100817.72
2023-05-06T02:12:11.709Z,100822.97
2023-05-06T02:14:42.762Z,100825.59
2023-05-06T02:17:10.676Z,100818.78
2023-05-06T02:19:38.440Z,100823.28
2023-05-06T02:22:06.185Z,100819.91
2023-05-06T02:24:33.985Z,100820.97
2023-05-06T02:27:02.278Z,100821.91
2023-05-06T02:29:30.043Z,100822.00
2023-05-06T02:31:59.237Z,100821.09
2023-05-06T02:34:26.841Z,100828.38
2023-05-06T02:36:54.575Z,100834.09
2023-05-06T02:39:22.487Z,100834.88
2023-05-06T02:41:50.249Z,100825.38
2023-05-06T02:44:18.151Z,100830.56
2023-05-06T02:46:46.072Z,100825.38
2023-05-06T02:49:15.360Z,100826.97
2023-05-06T02:51:43.270Z,100826.06
2023-05-06T02:54:11.039Z,100827.25
2023-05-06T02:56:38.790Z,100818.81
2023-05-06T02:59:07.030Z,100813.03
2023-05-06T03:01:34.795Z,100817.66
2023-05-06T03:04:02.905Z,100825.53
2023-05-06T03:06:32.639Z,100823.06
2023-05-06T03:09:00.403Z,100825.78
2023-05-06T03:11:30.804Z,100820.03
2023-05-06T03:13:58.961Z,100813.22
2023-05-06T03:16:26.747Z,100812.50
2023-05-06T03:18:54.484Z,100819.50
2023-05-06T03:21:22.390Z,100821.19
2023-05-06T03:23:51.594Z,100817.69
2023-05-06T03:26:19.404Z,100819.34
2023-05-06T03:28:47.234Z,100817.44
2023-05-06T03:31:15.025Z,100806.13
2023-05-06T03:33:43.025Z,100806.94
2023-05-06T03:36:12.773Z,100801.84
2023-05-06T03:38:40.709Z,100806.28
2023-05-06T03:41:09.886Z,100812.25
2023-05-06T03:43:37.406Z,100810.69
2023-05-06T03:46:05.558Z,100799.88
2023-05-06T03:48:33.379Z,100793.66
2023-05-06T03:51:01.244Z,100798.69
2023-05-06T03:53:29.148Z,100799.47
2023-05-06T03:55:56.935Z,100811.50
2023-05-06T03:58:26.385Z,100800.97
2023-05-06T04:00:54.157Z,100799.91
2023-05-06T04:03:22.033Z,100810.22
2023-05-06T04:05:50.670Z,100814.47
2023-05-06T04:08:18.457Z,100813.34
2023-05-06T04:10:46.597Z,100810.47
2023-05-06T04:13:14.412Z,100808.50
2023-05-06T04:15:43.573Z,100807.56
2023-05-06T04:18:11.378Z,100809.50
2023-05-06T04:20:39.102Z,100821.03
2023-05-06T04:23:06.979Z,100813.72
2023-05-06T04:25:35.820Z,100820.28
2023-05-06T04:28:03.588Z,100821.59
2023-05-06T04:30:31.365Z,100823.78
2023-05-06T04:33:00.515Z,100822.50
2023-05-06T04:35:28.114Z,100825.19
2023-05-06T04:37:56.661Z,100823.56
2023-05-06T04:40:26.413Z,100826.47
2023-05-06T04:42:54.252Z,100824.34
2023-05-06T04:45:22.297Z,100832.63
2023-05-06T04:47:50.113Z,100828.72
2023-05-06T04:50:19.484Z,100838.59
2023-05-06T04:52:47.250Z,100837.34
2023-05-06T04:55:15.123Z,100843.84
2023-05-06T04:57:45.083Z,100846.16
2023-05-06T05:00:14.640Z,100848.44
2023-05-06T05:02:42.503Z,100853.25
2023-05-06T05:05:10.766Z,100856.31
2023-05-06T05:07:40.049Z,100863.84
2023-05-06T05:10:09.194Z,100863.16
2023-05-06T05:12:36.931Z,100864.59
2023-05-06T05:15:05.341Z,100856.94
2023-05-06T05:17:33.193Z,100858.31
2023-05-06T05:20:01.078Z,100862.28
2023-05-06T05:22:28.801Z,100870.63
2023-05-06T05:24:57.976Z,100869.47
2023-05-06T05:27:25.912Z,100869.94
2023-05-06T05:29:53.656Z,100877.28
2023-05-06T05:32:22.813Z,100876.78
2023-05-06T05:34:50.602Z,100866.72
2023-05-06T05:37:18.343Z,100865.16
2023-05-06T05:39:46.080Z,100864.56
2023-05-06T05:42:15.192Z,100864.97
2023-05-06T05:44:42.763Z,100862.69
2023-05-06T05:47:10.629Z,100872.97
2023-05-06T05:49:38.348Z,100871.63
2023-05-06T05:52:07.227Z,100875.66
2023-05-06T05:54:35.057Z,100876.84
2023-05-06T05:57:03.036Z,100878.84
2023-05-06T05:59:32.904Z,100869.41
2023-05-06T06:02:00.646Z,100878.13
2023-05-06T06:04:28.490Z,100874.72
2023-05-06T06:06:57.893Z,100880.91
2023-05-06T06:09:25.727Z,100878.88
2023-05-06T06:11:53.478Z,100889.16
2023-05-06T06:14:21.193Z,100879.53
2023-05-06T06:16:50.354Z,100878.50
2023-05-06T06:19:18.203Z,100886.91
2023-05-06T06:21:45.913Z,100879.66
2023-05-06T06:24:13.848Z,100876.09
2023-05-06T06:26:41.612Z,100883.19
2023-05-06T06:29:09.389Z,100886.66
2023-05-06T06:31:39.720Z,100873.59
2023-05-06T06:34:12.517Z,100878.13
2023-05-06T06:36:45.112Z,100877.38
2023-05-06T06:39:13.055Z,100876.47
2023-05-06T06:41:40.956Z,100874.03
2023-05-06T06:44:08.744Z,100880.41
2023-05-06T06:46:36.598Z,100885.34
2023-05-06T06:49:04.563Z,100889.03
2023-05-06T06:51:33.798Z,100894.56
2023-05-06T06:54:01.574Z,100878.09
2023-05-06T06:56:29.357Z,100889.41
2023-05-06T06:58:57.245Z,100889.88
2023-05-06T07:01:25.056Z,100892.00
2023-05-06T07:03:52.868Z,100884.69
2023-05-06T07:06:20.681Z,100885.81
2023-05-06T07:08:49.849Z,100894.97
2023-05-06T07:11:17.797Z,100883.88
2023-05-06T07:13:45.608Z,100877.28
2023-05-06T07:16:13.344Z,100888.22
2023-05-06T07:18:41.157Z,100885.50
2023-05-06T07:21:08.969Z,100884.38
2023-05-06T07:23:36.749Z,100880.34
2023-05-06T07:26:06.033Z,100880.56
2023-05-06T07:28:33.828Z,100881.66
2023-05-06T07:31:01.612Z,100876.63
2023-05-06T07:33:29.444Z,100876.00
2023-05-06T07:35:57.211Z,100878.16
2023-05-06T07:38:25.082Z,100872.69
2023-05-06T07:40:53.031Z,100874.56
2023-05-06T07:43:22.934Z,100881.63
2023-05-06T07:45:50.892Z,100876.28
2023-05-06T07:48:20.149Z,100880.88
2023-05-06T07:50:48.173Z,100864.66
2023-05-06T07:53:16.019Z,100863.53
2023-05-06T07:55:43.756Z,100862.72
2023-05-06T07:58:11.606Z,100858.53
2023-05-06T08:00:40.929Z,100857.56
2023-05-06T08:03:08.799Z,100860.59
2023-05-06T08:05:36.727Z,100861.59
2023-05-06T08:08:04.953Z,100867.06
2023-05-06T08:10:32.739Z,100872.53
2023-05-06T08:13:00.585Z,100867.31
2023-05-06T08:15:28.479Z,100874.78
2023-05-06T08:18:02.105Z,100868.44
2023-05-06T08:20:35.109Z,100876.00
2023-05-06T08:23:02.837Z,100878.47
2023-05-06T08:25:30.745Z,100871.94
2023-05-06T08:27:58.574Z,100875.72
2023-05-06T08:30:26.509Z,100869.78
2023-05-06T08:32:54.330Z,100870.66
2023-05-06T08:35:23.490Z,100879.06
2023-05-06T08:37:51.272Z,100882.56
2023-05-06T08:40:21.035Z,100882.53
2023-05-06T08:42:49.794Z,100892.28
2023-05-06T08:45:18.446Z,100889.31
2023-05-06T08:47:46.959Z,100882.97
2023-05-06T08:50:14.889Z,100889.91
2023-05-06T08:52:44.000Z,100877.03
2023-05-06T08:55:12.365Z,100876.63
2023-05-06T08:57:41.358Z,100881.34
2023-05-06T09:00:11.182Z,100876.31
2023-05-06T09:02:41.310Z,100880.00
2023-05-06T09:05:11.442Z,100888.00
2023-05-06T09:07:39.598Z,100881.72
2023-05-06T09:10:13.979Z,100876.91
2023-05-06T09:12:41.983Z,100877.28
2023-05-06T09:15:10.958Z,100877.38
2023-05-06T09:17:39.356Z,100879.06
2023-05-06T09:20:09.719Z,100881.19
2023-05-06T09:22:39.352Z,100870.28
2023-05-06T09:25:09.823Z,100871.69
2023-05-06T09:27:37.930Z,100877.69
2023-05-06T09:30:07.681Z,100870.19
2023-05-06T09:32:39.310Z,100867.06
2023-05-06T09:35:09.386Z,100868.31
2023-05-06T09:37:37.377Z,100867.41
2023-05-06T09:40:06.073Z,100861.44
2023-05-06T09:42:35.771Z,100864.75
2023-05-06T09:45:04.065Z,100861.69
2023-05-06T09:47:34.998Z,100858.66
2023-05-06T09:50:03.548Z,100857.78
2023-05-06T09:52:31.881Z,100847.22
2023-05-06T09:54:59.719Z,100852.69
2023-05-06T09:57:27.812Z,100848.81
2023-05-06T09:59:57.083Z,100837.19
2023-05-06T10:02:25.372Z,100852.47
2023-05-06T10:04:53.645Z,100845.09
2023-05-06T10:07:23.761Z,100842.66
2023-05-06T10:09:52.219Z,100837.06
2023-05-06T10:12:20.402Z,100837.13
2023-05-06T10:14:48.479Z,100838.16
2023-05-06T10:17:19.546Z,100835.06
2023-05-06T10:19:47.886Z,100839.75
2023-05-06T10:22:19.207Z,100834.09
2023-05-06T10:24:50.076Z,100828.31
2023-05-06T10:27:19.924Z,100835.50
2023-05-06T10:29:49.215Z,100836.63
2023-05-06T10:32:21.460Z,100838.22
2023-05-06T10:34:55.119Z,100832.75
2023-05-06T10:37:25.905Z,100828.41
2023-05-06T10:39:55.248Z,100831.84
2023-05-06T10:42:27.606Z,100830.34
2023-05-06T10:44:59.236Z,100820.06
2023-05-06T10:47:28.625Z,100832.63
2023-05-06T10:50:21.904Z,100814.63
2023-05-06T10:52:52.408Z,100820.72
2023-05-06T10:55:28.463Z,100822.72
2023-05-06T10:57:57.434Z,100811.72
2023-05-06T11:00:25.604Z,100818.78
2023-05-06T11:02:58.902Z,100823.19
2023-05-06T11:05:26.797Z,100820.25
2023-05-06T11:07:55.127Z,100804.56
2023-05-06T11:10:33.086Z,100802.38
2023-05-06T11:13:19.934Z,100798.94
2023-05-06T11:15:50.693Z,100792.16
2023-05-06T11:18:44.863Z,100791.13
2023-05-06T11:21:40.677Z,100781.91
2023-05-06T11:24:13.339Z,100789.50
2023-05-06T11:26:44.727Z,100791.53
2023-05-06T11:29:12.608Z,100794.72
2023-05-06T11:31:41.818Z,100786.63
2023-05-06T11:34:14.287Z,100789.97
2023-05-06T11:36:50.872Z,100792.25
2023-05-06T11:39:18.633Z,100792.53
2023-05-06T11:41:46.379Z,100791.34
2023-05-06T11:44:25.530Z,100797.47
2023-05-06T11:46:53.989Z,100795.81
2023-05-06T11:49:23.025Z,100788.00
2023-05-06T11:51:50.821Z,100788.50
2023-05-06T11:54:20.367Z,100788.06
2023-05-06T11:56:50.226Z,100776.31
2023-05-06T11:59:19.538Z,100779.63
2023-05-06T12:01:47.502Z,100777.56
2023-05-06T12:04:15.323Z,100779.19
2023-05-06T12:06:44.630Z,100780.81
2023-05-06T12:09:13.343Z,100775.63
2023-05-06T12:11:43.203Z,100781.97
2023-05-06T12:14:12.897Z,100781.69
2023-05-06T12:16:41.229Z,100775.81
2023-05-06T12:19:09.228Z,100771.06
2023-05-06T12:21:40.443Z,100770.03
2023-05-06T12:24:09.676Z,100773.53
2023-05-06T12:26:47.233Z,100768.25
2023-05-06T12:29:19.057Z,100773.88
2023-05-06T12:31:48.136Z,100774.84
2023-05-06T12:34:17.302Z,100771.00
2023-05-06T12:36:46.751Z,100764.41
2023-05-06T12:39:17.540Z,100767.25
2023-05-06T12:41:46.447Z,100756.97
2023-05-06T12:44:37.267Z,100766.19
2023-05-06T12:47:07.454Z,100772.69
2023-05-06T12:49:49.081Z,100765.84
2023-05-06T12:52:17.300Z,100762.56
2023-05-06T12:54:46.977Z,100758.91
2023-05-06T12:57:14.774Z,100755.91
2023-05-06T12:59:44.160Z,100755.59
2023-05-06T13:02:11.963Z,100761.44
2023-05-06T13:04:39.804Z,100756.44
2023-05-06T13:07:07.750Z,100756.72
2023-05-06T13:09:35.576Z,100760.88
2023-05-06T13:12:05.471Z,100759.41
2023-05-06T13:14:33.257Z,100751.59
2023-05-06T13:17:04.681Z,100754.09
2023-05-06T13:19:33.425Z,100741.59
2023-05-06T13:22:01.755Z,100742.94
2023-05-06T13:24:33.037Z,100736.66
2023-05-06T13:27:01.417Z,100729.50
2023-05-06T13:29:30.623Z,100738.63
2023-05-06T13:31:58.488Z,100736.81
2023-05-06T13:34:26.270Z,100737.34
2023-05-06T13:36:54.630Z,100735.97
2023-05-06T13:39:22.244Z,100741.41
2023-05-06T13:41:50.581Z,100739.91
2023-05-06T13:44:18.459Z,100738.38
2023-05-06T13:46:47.941Z,100732.50
2023-05-06T13:49:15.974Z,100739.03
2023-05-06T13:51:43.737Z,100732.56
2023-05-06T13:54:11.533Z,100736.22
2023-05-06T13:56:39.359Z,100728.47
2023-05-06T13:59:08.242Z,100738.13
2023-05-06T14:01:36.802Z,100733.28
2023-05-06T14:04:06.149Z,100721.00
2023-05-06T14:06:33.901Z,100726.34
2023-05-06T14:09:01.664Z,100719.63
2023-05-06T14:11:29.483Z,100715.94
2023-05-06T14:13:57.405Z,100716.75
2023-05-06T14:16:25.338Z,100720.25
2023-05-06T14:18:53.549Z,100724.31
2023-05-06T14:21:23.273Z,100718.19
2023-05-06T14:23:51.080Z,100717.16
2023-05-06T14:26:18.825Z,100719.78
2023-05-06T14:28:46.640Z,100716.44
2023-05-06T14:31:14.499Z,100714.63
2023-05-06T14:33:42.282Z,100714.66
2023-05-06T14:36:10.575Z,100709.69
2023-05-06T14:38:39.738Z,100703.50
2023-05-06T14:41:07.605Z,100704.84
2023-05-06T14:43:35.436Z,100702.50
2023-05-06T14:46:03.288Z,100702.50
2023-05-06T14:48:32.032Z,100700.34
2023-05-06T14:51:00.470Z,100701.34
2023-05-06T14:53:28.278Z,100702.50
2023-05-06T14:55:57.413Z,100701.84
2023-05-06T14:58:25.182Z,100696.69
2023-05-06T15:00:52.982Z,100702.50
2023-05-06T15:03:20.921Z,100701.00
2023-05-06T15:05:50.619Z,100695.13
2023-05-06T15:08:18.349Z,100696.50
2023-05-06T15:10:46.154Z,100707.88
2023-05-06T15:13:15.467Z,100707.47
2023-05-06T15:15:43.654Z,100698.94
2023-05-06T15:18:13.187Z,100705.31
2023-05-06T15:20:41.061Z,100704.44
2023-05-06T15:23:09.022Z,100708.78
2023-05-06T15:25:37.109Z,100707.47
2023-05-06T15:28:06.009Z,100708.56
2023-05-06T15:30:35.071Z,100708.09
2023-05-06T15:33:03.463Z,100708.91
2023-05-06T15:35:31.678Z,100729.41
2023-05-06T15:37:59.623Z,100727.59
2023-05-06T15:40:27.768Z,100735.56
2023-05-06T15:42:55.868Z,100749.81
2023-05-06T15:45:23.638Z,100749.03
2023-05-06T15:47:54.112Z,100761.38
2023-05-06T15:50:32.893Z,100767.75
2023-05-06T15:53:02.467Z,100770.28
2023-05-06T15:55:35.080Z,100777.44
2023-05-06T15:58:09.110Z,100789.38
2023-05-06T16:00:36.951Z,100806.84
2023-05-06T16:03:08.073Z,100806.09
2023-05-06T16:05:38.199Z,100813.25
2023-05-06T16:08:06.353Z,100824.34
2023-05-06T16:10:35.498Z,100823.19
2023-05-06T16:13:03.583Z,100815.78
2023-05-06T16:15:31.410Z,100820.34
2023-05-06T16:17:59.263Z,100809.63
2023-05-06T16:20:29.633Z,100812.97
2023-05-06T16:22:57.450Z,100805.91
2023-05-06T16:25:27.430Z,100812.97
2023-05-06T16:27:55.925Z,100809.13
2023-05-06T16:30:24.111Z,100807.84
2023-05-06T16:32:52.084Z,100809.84
2023-05-06T16:35:19.986Z,100809.09
2023-05-06T16:37:49.141Z,100795.31
2023-05-06T16:40:18.504Z,100809.84
2023-05-06T16:42:46.431Z,100799.81
2023-05-06T16:45:14.412Z,100793.56
2023-05-06T16:47:42.412Z,100790.84
2023-05-06T16:50:10.957Z,100785.41
2023-05-06T16:52:39.057Z,100790.63
2023-05-06T16:55:09.243Z,100785.75
2023-05-06T16:57:37.510Z,100784.44
2023-05-06T17:00:11.986Z,100784.91
2023-05-06T17:02:41.007Z,100786.28
2023-05-06T17:05:09.377Z,100781.56
2023-05-06T17:07:37.150Z,100772.66
2023-05-06T17:10:05.378Z,100771.91
2023-05-06T17:12:34.596Z,100774.47
2023-05-06T17:15:02.624Z,100779.50
2023-05-06T17:17:30.749Z,100780.25
2023-05-06T17:19:59.324Z,100782.66
2023-05-06T17:22:27.142Z,100784.34
2023-05-06T17:24:55.086Z,100781.59
2023-05-06T17:27:23.114Z,100774.50
2023-05-06T17:29:52.843Z,100771.78
2023-05-06T17:32:20.840Z,100776.81
2023-05-06T17:34:48.706Z,100774.94
2023-05-06T17:37:16.525Z,100771.38
2023-05-06T17:39:46.250Z,100777.56
2023-05-06T17:42:14.061Z,100776.81
2023-05-06T17:44:42.845Z,100777.66
2023-05-06T17:47:12.175Z,100773.25
2023-05-06T17:49:39.977Z,100771.38
2023-05-06T17:52:07.787Z,100772.13
2023-05-06T17:54:36.558Z,100768.44
2023-05-06T17:57:04.657Z,100776.22
2023-05-06T17:59:32.612Z,100769.09
2023-05-06T18:02:01.157Z,100771.47
2023-05-06T18:04:30.401Z,100767.19
2023-05-06T18:06:58.166Z,100771.47
2023-05-06T18:09:25.943Z,100773.28
2023-05-06T18:11:53.732Z,100776.72
2023-05-06T18:14:21.609Z,100773.91
2023-05-06T18:16:49.378Z,100779.69
2023-05-06T18:19:17.172Z,100785.47
2023-05-06T18:21:47.010Z,100776.44
2023-05-06T18:24:16.614Z,100778.06
2023-05-06T18:26:46.092Z,100776.06
2023-05-06T18:29:14.425Z,100778.50
2023-05-06T18:31:42.801Z,100773.16
2023-05-06T18:34:10.664Z,100783.44
2023-05-06T18:36:38.832Z,100782.38
2023-05-06T18:39:08.270Z,100779.75
2023-05-06T18:41:36.311Z,100791.19
2023-05-06T18:44:04.673Z,100791.53
2023-05-06T18:46:32.507Z,100795.38
2023-05-06T18:49:00.926Z,100797.63
2023-05-06T18:51:28.877Z,100800.84
2023-05-06T18:53:56.836Z,100807.25
2023-05-06T18:56:26.064Z,100815.22
2023-05-06T18:58:53.889Z,100820.34
2023-05-06T19:01:21.958Z,100813.53
2023-05-06T19:03:49.930Z,100813.84
2023-05-06T19:06:17.797Z,100819.84
2023-05-06T19:08:45.591Z,100818.91
2023-05-06T19:11:15.613Z,100813.94
2023-05-06T19:13:45.084Z,100822.31
2023-05-06T19:16:13.461Z,100816.00
2023-05-06T19:18:41.492Z,100824.53
2023-05-06T19:21:10.217Z,100829.50
2023-05-06T19:23:38.097Z,100816.25
2023-05-06T19:26:06.780Z,100822.81
2023-05-06T19:28:34.883Z,100821.31
2023-05-06T19:31:07.588Z,100828.53
2023-05-06T19:33:35.455Z,100826.22
2023-05-06T19:36:03.386Z,100827.25
2023-05-06T19:38:31.537Z,100829.13
2023-05-06T19:40:59.363Z,100828.44
2023-05-06T19:43:27.205Z,100829.38
2023-05-06T19:45:55.114Z,100832.06
2023-05-06T19:48:24.553Z,100830.50
2023-05-06T19:50:54.072Z,100821.91
2023-05-06T19:53:22.815Z,100823.78
2023-05-06T19:55:50.842Z,100823.59
2023-05-06T19:58:19.361Z,100827.13
2023-05-06T20:00:47.144Z,100830.50
2023-05-06T20:03:15.088Z,100831.25
2023-05-06T20:05:44.302Z,100825.06
2023-05-06T20:08:12.171Z,100834.44
2023-05-06T20:10:40.035Z,100834.06
2023-05-06T20:13:08.049Z,100836.66
2023-05-06T20:15:36.498Z,100835.94
2023-05-06T20:18:04.512Z,100835.19
2023-05-06T20:20:34.351Z,100830.97
2023-05-06T20:23:04.096Z,100832.75
2023-05-06T20:25:32.403Z,100837.31
2023-05-06T20:28:00.467Z,100828.91
2023-05-06T20:30:28.287Z,100825.66
2023-05-06T20:32:56.356Z,100832.84
2023-05-06T20:35:24.434Z,100840.97
2023-05-06T20:37:54.432Z,100842.84
2023-05-06T20:40:23.893Z,100837.78
2023-05-06T20:42:51.780Z,100843.94
2023-05-06T20:45:19.616Z,100840.50
2023-05-06T20:47:47.526Z,100845.06
2023-05-06T20:50:17.265Z,100840.75
2023-05-06T20:52:46.157Z,100841.63
2023-05-06T20:55:14.665Z,100842.56
2023-05-06T20:57:46.966Z,100842.63
2023-05-06T21:00:14.968Z,100836.66
2023-05-06T21:02:42.905Z,100839.25
2023-05-06T21:05:11.491Z,100835.81
2023-05-06T21:07:39.621Z,100841.13
2023-05-06T21:10:07.999Z,100839.44
2023-05-06T21:12:35.831Z,100850.84
2023-05-06T21:15:05.848Z,100848.97
2023-05-06T21:17:33.830Z,100843.75
2023-05-06T21:20:03.546Z,100836.66
2023-05-06T21:22:32.027Z,100839.19
2023-05-06T21:24:59.865Z,100838.31
2023-05-06T21:27:27.700Z,100834.78
2023-05-06T21:29:55.523Z,100829.56
2023-05-06T21:32:24.755Z,100834.78
2023-05-06T21:34:52.614Z,100836.47
2023-05-06T21:37:20.453Z,100827.69
2023-05-06T21:39:48.241Z,100837.41
2023-05-06T21:42:16.863Z,100831.41
2023-05-06T21:44:44.694Z,100834.97
2023-05-06T21:47:12.488Z,100838.31
2023-05-06T21:49:41.652Z,100835.72
2023-05-06T21:52:09.207Z,100837.00
2023-05-06T21:54:37.068Z,100836.66
2023-05-06T21:57:08.089Z,100834.78
2023-05-06T21:59:36.363Z,100836.47
2023-05-06T22:02:04.757Z,100829.56
2023-05-06T22:04:32.664Z,100828.81
2023-05-06T22:07:01.833Z,100826.19
2023-05-06T22:09:29.412Z,100835.31
2023-05-06T22:11:57.843Z,100822.94
2023-05-06T22:14:37.282Z,100819.44
2023-05-06T22:17:10.564Z,100810.84
2023-05-06T22:19:38.718Z,100811.91
2023-05-06T22:22:08.452Z,100813.94
2023-05-06T22:24:36.246Z,100806.38
2023-05-06T22:27:04.079Z,100811.13
2023-05-06T22:29:31.909Z,100801.69
2023-05-06T22:31:59.758Z,100810.53
2023-05-06T22:34:27.665Z,100816.25
2023-05-06T22:36:57.605Z,100811.19
2023-05-06T22:39:27.408Z,100811.38
2023-05-06T22:41:54.996Z,100809.41
2023-05-06T22:44:22.721Z,100813.59
2023-05-06T22:46:50.479Z,100812.66
2023-05-06T22:49:19.600Z,100813.59
2023-05-06T22:51:47.171Z,100822.69
2023-05-06T22:54:16.498Z,100827.47
2023-05-06T22:56:45.643Z,100830.84
2023-05-06T22:59:13.176Z,100832.91
2023-05-06T23:01:43.405Z,100832.47
2023-05-06T23:04:11.374Z,100823.69
2023-05-06T23:06:40.006Z,100814.16
2023-05-06T23:09:07.972Z,100816.03
2023-05-06T23:11:35.832Z,100814.22
2023-05-06T23:14:05.079Z,100817.59
2023-05-06T23:16:33.161Z,100808.06
2023-05-06T23:19:01.027Z,100808.00
2023-05-06T23:21:29.310Z,100814.16
2023-05-06T23:23:57.047Z,100813.22
2023-05-06T23:26:24.936Z,100820.16
2023-05-06T23:28:52.680Z,100816.59
2023-05-06T23:31:21.910Z,100820.91
2023-05-06T23:33:49.767Z,100819.97
2023-05-06T23:36:17.724Z,100819.78
2023-05-06T23:38:45.458Z,100823.16
2023-05-06T23:41:16.085Z,100824.84
2023-05-06T23:43:43.827Z,100831.75
2023-05-06T23:46:11.746Z,100828.19
2023-05-06T23:48:41.027Z,100829.03
2023-05-06T23:51:08.607Z,100826.03
2023-05-06T23:53:37.253Z,100826.69
2023-05-06T23:56:05.552Z,100820.63
2023-05-06T23:58:33.570Z,100825.19
